sensor_id;sensor_type;location;lat;lon;timestamp;pressure;altitude;pressure_sealevel;temperature;humidity
62248;BME280;48237;50.140;8.486;2023-02-02T00:00:56;99920.33;;;5.10;100.00
62248;BME280;48237;50.140;8.486;2023-02-02T00:03:23;99931.21;;;4.57;100.00
62248;BME280;48237;50.140;8.486;2023-02-02T00:05:52;99935.78;;;4.50;100.00
62248;BME280;48237;50.140;8.486;2023-02-02T00:08:20;99932.62;;;4.16;100.00
62248;BME280;48237;50.140;8.486;2023-02-02T00:10:48;99925.17;;;4.76;100.00
62248;BME280;48237;50.140;8.486;2023-02-02T00:13:15;99923.05;;;4.53;100.00
62248;BME280;48237;50.140;8.486;2023-02-02T00:15:43;99923.34;;;4.59;100.00
62248;BME280;48237;50.140;8.486;2023-02-02T00:18:10;99919.51;;;4.61;100.00
62248;BME280;48237;50.140;8.486;2023-02-02T00:20:37;99926.67;;;4.60;100.00
62248;BME280;48237;50.140;8.486;2023-02-02T00:23:04;99933.05;;;4.62;100.00
62248;BME280;48237;50.140;8.486;2023-02-02T00:25:31;99926.26;;;4.71;100.00
62248;BME280;48237;50.140;8.486;2023-02-02T00:27:58;99933.25;;;4.61;100.00
62248;BME280;48237;50.140;8.486;2023-02-02T00:30:25;99933.09;;;4.57;100.00
62248;BME280;48237;50.140;8.486;2023-02-02T00:32:52;99933.36;;;4.25;100.00
62248;BME280;48237;50.140;8.486;2023-02-02T00:35:19;99932.64;;;4.20;100.00
62248;BME280;48237;50.140;8.486;2023-02-02T00:37:47;99942.16;;;4.33;100.00
62248;BME280;48237;50.140;8.486;2023-02-02T00:40:14;99940.25;;;4.63;100.00
62248;BME280;48237;50.140;8.486;2023-02-02T00:42:41;99943.31;;;4.72;100.00
62248;BME280;48237;50.140;8.486;2023-02-02T00:45:12;99946.88;;;5.07;100.00
62248;BME280;48237;50.140;8.486;2023-02-02T00:47:39;99930.86;;;5.08;100.00
62248;BME280;48237;50.140;8.486;2023-02-02T00:50:08;99932.01;;;5.37;100.00
62248;BME280;48237;50.140;8.486;2023-02-02T00:52:35;99941.76;;;5.40;100.00
62248;BME280;48237;50.140;8.486;2023-02-02T00:55:03;99946.74;;;5.24;100.00
62248;BME280;48237;50.140;8.486;2023-02-02T00:57:30;99949.50;;;5.25;100.00
62248;BME280;48237;50.140;8.486;2023-02-02T00:59:58;99955.54;;;5.36;100.00
62248;BME280;48237;50.140;8.486;2023-02-02T01:02:25;99958.87;;;5.40;100.00
62248;BME280;48237;50.140;8.486;2023-02-02T01:04:53;99962.91;;;5.67;100.00
62248;BME280;48237;50.140;8.486;2023-02-02T01:07:20;99966.76;;;5.67;100.00
62248;BME280;48237;50.140;8.486;2023-02-02T01:09:47;99965.07;;;5.71;100.00
62248;BME280;48237;50.140;8.486;2023-02-02T01:12:14;99969.31;;;5.71;100.00
62248;BME280;48237;50.140;8.486;2023-02-02T01:14:41;99972.11;;;5.19;100.00
62248;BME280;48237;50.140;8.486;2023-02-02T01:17:08;99981.34;;;5.01;100.00
62248;BME280;48237;50.140;8.486;2023-02-02T01:19:35;99982.52;;;5.32;100.00
62248;BME280;48237;50.140;8.486;2023-02-02T01:22:02;99976.34;;;5.40;100.00
62248;BME280;48237;50.140;8.486;2023-02-02T01:24:29;99983.55;;;5.43;100.00
62248;BME280;48237;50.140;8.486;2023-02-02T01:26:56;99986.48;;;5.29;100.00
62248;BME280;48237;50.140;8.486;2023-02-02T01:29:23;99985.78;;;5.29;100.00
62248;BME280;48237;50.140;8.486;2023-02-02T01:31:51;99987.29;;;5.66;100.00
62248;BME280;48237;50.140;8.486;2023-02-02T01:34:19;99994.25;;;5.37;100.00
62248;BME280;48237;50.140;8.486;2023-02-02T01:36:46;100005.12;;;5.38;100.00
62248;BME280;48237;50.140;8.486;2023-02-02T01:39:13;100005.45;;;4.81;100.00
62248;BME280;48237;50.140;8.486;2023-02-02T01:41:40;100008.29;;;5.48;100.00
62248;BME280;48237;50.140;8.486;2023-02-02T01:45:05;100003.11;;;5.50;100.00
62248;BME280;48237;50.140;8.486;2023-02-02T01:47:36;100005.35;;;5.33;100.00
62248;BME280;48237;50.140;8.486;2023-02-02T01:50:04;100008.98;;;5.43;100.00
62248;BME280;48237;50.140;8.486;2023-02-02T01:52:33;100001.07;;;5.42;100.00
62248;BME280;48237;50.140;8.486;2023-02-02T01:55:04;100010.44;;;5.58;100.00
62248;BME280;48237;50.140;8.486;2023-02-02T01:57:34;100004.61;;;6.47;100.00
62248;BME280;48237;50.140;8.486;2023-02-02T02:00:08;100001.61;;;6.49;99.84
62248;BME280;48237;50.140;8.486;2023-02-02T02:02:38;100004.21;;;6.04;100.00
62248;BME280;48237;50.140;8.486;2023-02-02T02:05:08;100012.16;;;4.90;100.00
62248;BME280;48237;50.140;8.486;2023-02-02T02:07:39;100005.97;;;5.16;100.00
62248;BME280;48237;50.140;8.486;2023-02-02T02:10:10;100004.65;;;5.44;100.00
62248;BME280;48237;50.140;8.486;2023-02-02T02:12:38;100007.43;;;5.87;100.00
62248;BME280;48237;50.140;8.486;2023-02-02T02:15:07;100004.45;;;5.66;100.00
62248;BME280;48237;50.140;8.486;2023-02-02T02:17:47;100002.57;;;5.49;100.00
62248;BME280;48237;50.140;8.486;2023-02-02T02:20:33;100001.82;;;5.60;100.00
62248;BME280;48237;50.140;8.486;2023-02-02T02:24:30;100002.97;;;5.68;100.00
62248;BME280;48237;50.140;8.486;2023-02-02T02:29:53;99998.93;;;5.85;100.00
62248;BME280;48237;50.140;8.486;2023-02-02T02:32:34;100003.35;;;6.07;100.00
62248;BME280;48237;50.140;8.486;2023-02-02T02:35:09;100004.14;;;6.54;98.04
62248;BME280;48237;50.140;8.486;2023-02-02T02:37:45;100001.29;;;6.11;100.00
62248;BME280;48237;50.140;8.486;2023-02-02T02:40:21;100005.34;;;6.29;100.00
62248;BME280;48237;50.140;8.486;2023-02-02T02:42:54;100004.68;;;6.82;98.96
62248;BME280;48237;50.140;8.486;2023-02-02T02:45:24;100005.48;;;6.56;100.00
62248;BME280;48237;50.140;8.486;2023-02-02T02:47:54;100004.83;;;6.36;100.00
62248;BME280;48237;50.140;8.486;2023-02-02T02:50:22;100002.99;;;6.42;99.67
62248;BME280;48237;50.140;8.486;2023-02-02T02:52:53;100001.63;;;6.48;100.00
62248;BME280;48237;50.140;8.486;2023-02-02T02:55:24;100002.77;;;6.69;100.00
62248;BME280;48237;50.140;8.486;2023-02-02T02:58:03;99997.09;;;6.54;100.00
62248;BME280;48237;50.140;8.486;2023-02-02T03:00:43;100003.69;;;6.55;100.00
62248;BME280;48237;50.140;8.486;2023-02-02T03:03:19;100001.50;;;6.02;100.00
62248;BME280;48237;50.140;8.486;2023-02-02T03:05:53;100000.36;;;6.46;100.00
62248;BME280;48237;50.140;8.486;2023-02-02T03:08:27;100006.12;;;6.65;97.75
62248;BME280;48237;50.140;8.486;2023-02-02T03:10:59;100003.42;;;6.65;99.36
62248;BME280;48237;50.140;8.486;2023-02-02T03:13:28;100000.45;;;6.37;100.00
62248;BME280;48237;50.140;8.486;2023-02-02T03:15:56;100006.08;;;6.15;100.00
62248;BME280;48237;50.140;8.486;2023-02-02T03:18:27;100000.98;;;6.17;100.00
62248;BME280;48237;50.140;8.486;2023-02-02T03:20:54;100007.29;;;5.71;100.00
62248;BME280;48237;50.140;8.486;2023-02-02T03:23:21;99999.68;;;6.42;100.00
62248;BME280;48237;50.140;8.486;2023-02-02T03:25:49;100000.98;;;6.46;100.00
62248;BME280;48237;50.140;8.486;2023-02-02T03:28:17;100002.59;;;6.17;100.00
62248;BME280;48237;50.140;8.486;2023-02-02T03:30:46;100001.39;;;6.11;100.00
62248;BME280;48237;50.140;8.486;2023-02-02T03:33:14;100005.09;;;6.29;100.00
62248;BME280;48237;50.140;8.486;2023-02-02T03:35:42;100002.73;;;6.63;99.81
62248;BME280;48237;50.140;8.486;2023-02-02T03:38:09;100007.90;;;6.16;100.00
62248;BME280;48237;50.140;8.486;2023-02-02T03:40:36;100010.16;;;6.05;100.00
62248;BME280;48237;50.140;8.486;2023-02-02T03:43:03;100004.68;;;5.82;100.00
62248;BME280;48237;50.140;8.486;2023-02-02T03:45:30;100006.73;;;6.27;100.00
62248;BME280;48237;50.140;8.486;2023-02-02T03:47:57;100009.48;;;6.17;100.00
62248;BME280;48237;50.140;8.486;2023-02-02T03:50:24;100010.84;;;5.71;100.00
62248;BME280;48237;50.140;8.486;2023-02-02T03:52:53;100012.83;;;4.97;100.00
62248;BME280;48237;50.140;8.486;2023-02-02T03:55:20;100005.82;;;5.77;100.00
62248;BME280;48237;50.140;8.486;2023-02-02T03:57:47;100003.49;;;6.46;100.00
62248;BME280;48237;50.140;8.486;2023-02-02T04:00:14;100010.21;;;5.63;100.00
62248;BME280;48237;50.140;8.486;2023-02-02T04:02:42;100011.03;;;5.92;100.00
62248;BME280;48237;50.140;8.486;2023-02-02T04:05:09;100012.64;;;5.95;100.00
62248;BME280;48237;50.140;8.486;2023-02-02T04:07:36;100012.16;;;6.21;100.00
62248;BME280;48237;50.140;8.486;2023-02-02T04:10:04;100022.88;;;5.05;100.00
62248;BME280;48237;50.140;8.486;2023-02-02T04:12:32;100027.40;;;5.56;100.00
62248;BME280;48237;50.140;8.486;2023-02-02T04:14:59;100025.12;;;6.66;100.00
62248;BME280;48237;50.140;8.486;2023-02-02T04:17:26;100028.72;;;5.80;100.00
62248;BME280;48237;50.140;8.486;2023-02-02T04:19:53;100024.13;;;5.91;100.00
62248;BME280;48237;50.140;8.486;2023-02-02T04:22:20;100021.14;;;5.85;100.00
62248;BME280;48237;50.140;8.486;2023-02-02T04:24:47;100024.60;;;5.98;100.00
62248;BME280;48237;50.140;8.486;2023-02-02T04:27:14;100027.61;;;5.77;100.00
62248;BME280;48237;50.140;8.486;2023-02-02T04:29:41;100028.39;;;6.23;100.00
62248;BME280;48237;50.140;8.486;2023-02-02T04:32:08;100027.08;;;5.96;100.00
62248;BME280;48237;50.140;8.486;2023-02-02T04:34:36;100028.37;;;6.31;100.00
62248;BME280;48237;50.140;8.486;2023-02-02T04:37:03;100023.21;;;6.54;100.00
62248;BME280;48237;50.140;8.486;2023-02-02T04:39:30;100029.32;;;6.64;98.67
62248;BME280;48237;50.140;8.486;2023-02-02T04:41:57;100030.67;;;6.64;99.64
62248;BME280;48237;50.140;8.486;2023-02-02T04:44:24;100034.98;;;6.16;100.00
62248;BME280;48237;50.140;8.486;2023-02-02T04:46:51;100042.08;;;5.88;100.00
62248;BME280;48237;50.140;8.486;2023-02-02T04:49:18;100045.56;;;6.68;99.13
62248;BME280;48237;50.140;8.486;2023-02-02T04:51:45;100053.17;;;6.63;97.77
62248;BME280;48237;50.140;8.486;2023-02-02T04:54:12;100050.86;;;6.63;98.71
62248;BME280;48237;50.140;8.486;2023-02-02T04:56:39;100057.85;;;6.10;100.00
62248;BME280;48237;50.140;8.486;2023-02-02T04:59:07;100055.11;;;6.16;100.00
62248;BME280;48237;50.140;8.486;2023-02-02T05:01:34;100046.99;;;6.64;97.79
62248;BME280;48237;50.140;8.486;2023-02-02T05:04:01;100049.72;;;6.35;100.00
62248;BME280;48237;50.140;8.486;2023-02-02T05:06:28;100055.57;;;5.10;100.00
62248;BME280;48237;50.140;8.486;2023-02-02T05:08:55;100052.19;;;5.64;100.00
62248;BME280;48237;50.140;8.486;2023-02-02T05:11:22;100054.34;;;6.15;100.00
62248;BME280;48237;50.140;8.486;2023-02-02T05:13:52;100053.67;;;5.96;100.00
62248;BME280;48237;50.140;8.486;2023-02-02T05:16:20;100060.57;;;6.02;100.00
62248;BME280;48237;50.140;8.486;2023-02-02T05:18:48;100058.13;;;6.01;100.00
62248;BME280;48237;50.140;8.486;2023-02-02T05:21:16;100071.14;;;6.24;100.00
62248;BME280;48237;50.140;8.486;2023-02-02T05:23:43;100074.53;;;5.92;100.00
62248;BME280;48237;50.140;8.486;2023-02-02T05:26:12;100074.78;;;5.97;100.00
62248;BME280;48237;50.140;8.486;2023-02-02T05:28:39;100066.73;;;6.08;100.00
62248;BME280;48237;50.140;8.486;2023-02-02T05:31:07;100072.63;;;5.59;100.00
62248;BME280;48237;50.140;8.486;2023-02-02T05:33:34;100075.38;;;5.37;100.00
62248;BME280;48237;50.140;8.486;2023-02-02T05:36:01;100076.46;;;5.61;100.00
62248;BME280;48237;50.140;8.486;2023-02-02T05:38:28;100074.11;;;5.79;100.00
62248;BME280;48237;50.140;8.486;2023-02-02T05:40:55;100074.75;;;5.96;100.00
62248;BME280;48237;50.140;8.486;2023-02-02T05:43:24;100077.75;;;5.91;100.00
62248;BME280;48237;50.140;8.486;2023-02-02T05:45:51;100086.37;;;5.23;100.00
62248;BME280;48237;50.140;8.486;2023-02-02T05:48:18;100084.29;;;5.58;100.00
62248;BME280;48237;50.140;8.486;2023-02-02T05:50:49;100081.25;;;5.35;100.00
62248;BME280;48237;50.140;8.486;2023-02-02T05:53:22;100085.78;;;5.67;100.00
62248;BME280;48237;50.140;8.486;2023-02-02T05:55:50;100079.29;;;6.17;100.00
62248;BME280;48237;50.140;8.486;2023-02-02T05:58:17;100082.18;;;6.53;99.83
62248;BME280;48237;50.140;8.486;2023-02-02T06:00:44;100084.96;;;6.37;99.32
62248;BME280;48237;50.140;8.486;2023-02-02T06:03:11;100090.77;;;5.73;100.00
62248;BME280;48237;50.140;8.486;2023-02-02T06:05:38;100087.49;;;6.38;100.00
62248;BME280;48237;50.140;8.486;2023-02-02T06:08:05;100087.84;;;6.19;100.00
62248;BME280;48237;50.140;8.486;2023-02-02T06:10:32;100084.96;;;6.15;100.00
62248;BME280;48237;50.140;8.486;2023-02-02T06:12:59;100093.15;;;5.51;100.00
62248;BME280;48237;50.140;8.486;2023-02-02T06:15:26;100084.13;;;5.96;100.00
62248;BME280;48237;50.140;8.486;2023-02-02T06:17:53;100072.83;;;6.23;100.00
62248;BME280;48237;50.140;8.486;2023-02-02T06:20:20;100084.84;;;5.97;100.00
62248;BME280;48237;50.140;8.486;2023-02-02T06:22:47;100088.56;;;6.54;99.81
62248;BME280;48237;50.140;8.486;2023-02-02T06:25:15;100086.05;;;5.97;100.00
62248;BME280;48237;50.140;8.486;2023-02-02T06:27:42;100080.22;;;6.14;100.00
62248;BME280;48237;50.140;8.486;2023-02-02T06:30:10;100094.35;;;5.48;100.00
62248;BME280;48237;50.140;8.486;2023-02-02T06:32:38;100088.70;;;5.72;100.00
62248;BME280;48237;50.140;8.486;2023-02-02T06:35:06;100089.59;;;5.53;100.00
62248;BME280;48237;50.140;8.486;2023-02-02T06:37:33;100090.52;;;6.13;100.00
62248;BME280;48237;50.140;8.486;2023-02-02T06:40:00;100088.83;;;6.24;100.00
62248;BME280;48237;50.140;8.486;2023-02-02T06:42:27;100087.18;;;5.71;100.00
62248;BME280;48237;50.140;8.486;2023-02-02T06:44:54;100088.67;;;5.22;100.00
62248;BME280;48237;50.140;8.486;2023-02-02T06:47:21;100097.64;;;5.86;100.00
62248;BME280;48237;50.140;8.486;2023-02-02T06:49:48;100096.48;;;5.92;100.00
62248;BME280;48237;50.140;8.486;2023-02-02T06:52:15;100093.14;;;5.89;100.00
62248;BME280;48237;50.140;8.486;2023-02-02T06:54:42;100078.67;;;5.89;100.00
62248;BME280;48237;50.140;8.486;2023-02-02T06:57:09;100089.55;;;6.19;98.51
62248;BME280;48237;50.140;8.486;2023-02-02T06:59:37;100088.62;;;5.92;100.00
62248;BME280;48237;50.140;8.486;2023-02-02T07:02:04;100098.68;;;6.53;98.42
62248;BME280;48237;50.140;8.486;2023-02-02T07:04:31;100093.07;;;6.44;95.64
62248;BME280;48237;50.140;8.486;2023-02-02T07:06:58;100088.88;;;6.56;97.30
62248;BME280;48237;50.140;8.486;2023-02-02T07:09:25;100086.10;;;5.97;99.30
62248;BME280;48237;50.140;8.486;2023-02-02T07:11:52;100084.77;;;6.46;97.75
62248;BME280;48237;50.140;8.486;2023-02-02T07:14:20;100080.31;;;6.31;98.99
62248;BME280;48237;50.140;8.486;2023-02-02T07:16:47;100080.07;;;6.19;97.79
62248;BME280;48237;50.140;8.486;2023-02-02T07:19:14;100080.00;;;6.38;98.52
62248;BME280;48237;50.140;8.486;2023-02-02T07:21:41;100092.09;;;6.44;96.77
62248;BME280;48237;50.140;8.486;2023-02-02T07:24:08;100100.30;;;6.28;97.60
62248;BME280;48237;50.140;8.486;2023-02-02T07:26:35;100099.03;;;6.01;98.36
62248;BME280;48237;50.140;8.486;2023-02-02T07:29:03;100097.53;;;6.35;97.02
62248;BME280;48237;50.140;8.486;2023-02-02T07:31:30;100093.67;;;6.06;98.28
62248;BME280;48237;50.140;8.486;2023-02-02T07:33:58;100097.06;;;5.79;100.00
62248;BME280;48237;50.140;8.486;2023-02-02T07:36:25;100105.04;;;6.04;100.00
62248;BME280;48237;50.140;8.486;2023-02-02T07:38:52;100100.97;;;6.21;98.85
62248;BME280;48237;50.140;8.486;2023-02-02T07:41:20;100102.77;;;6.44;98.90
62248;BME280;48237;50.140;8.486;2023-02-02T07:43:48;100109.20;;;6.67;96.34
62248;BME280;48237;50.140;8.486;2023-02-02T07:46:17;100111.82;;;6.09;100.00
62248;BME280;48237;50.140;8.486;2023-02-02T07:48:45;100109.15;;;6.27;100.00
62248;BME280;48237;50.140;8.486;2023-02-02T07:51:14;100114.88;;;6.22;99.06
62248;BME280;48237;50.140;8.486;2023-02-02T07:53:43;100113.04;;;6.01;100.00
62248;BME280;48237;50.140;8.486;2023-02-02T07:56:12;100113.90;;;5.42;100.00
62248;BME280;48237;50.140;8.486;2023-02-02T07:58:40;100113.47;;;5.73;100.00
62248;BME280;48237;50.140;8.486;2023-02-02T08:01:08;100104.84;;;5.84;100.00
62248;BME280;48237;50.140;8.486;2023-02-02T08:03:37;100107.13;;;6.05;100.00
62248;BME280;48237;50.140;8.486;2023-02-02T08:06:11;100108.94;;;5.94;100.00
62248;BME280;48237;50.140;8.486;2023-02-02T08:08:39;100111.78;;;5.57;100.00
62248;BME280;48237;50.140;8.486;2023-02-02T08:11:08;100110.21;;;6.00;100.00
62248;BME280;48237;50.140;8.486;2023-02-02T08:13:36;100116.17;;;5.44;100.00
62248;BME280;48237;50.140;8.486;2023-02-02T08:16:04;100110.67;;;6.09;100.00
62248;BME280;48237;50.140;8.486;2023-02-02T08:18:31;100117.48;;;5.74;100.00
62248;BME280;48237;50.140;8.486;2023-02-02T08:20:58;100113.81;;;5.90;100.00
62248;BME280;48237;50.140;8.486;2023-02-02T08:23:25;100114.00;;;5.77;100.00
62248;BME280;48237;50.140;8.486;2023-02-02T08:25:54;100105.15;;;5.55;100.00
62248;BME280;48237;50.140;8.486;2023-02-02T08:28:30;100116.50;;;5.80;100.00
62248;BME280;48237;50.140;8.486;2023-02-02T08:31:03;100126.40;;;6.08;100.00
62248;BME280;48237;50.140;8.486;2023-02-02T08:33:30;100129.74;;;5.94;100.00
62248;BME280;48237;50.140;8.486;2023-02-02T08:35:57;100136.49;;;5.42;100.00
62248;BME280;48237;50.140;8.486;2023-02-02T08:38:24;100137.77;;;5.22;100.00
62248;BME280;48237;50.140;8.486;2023-02-02T08:40:51;100125.13;;;5.43;100.00
62248;BME280;48237;50.140;8.486;2023-02-02T08:43:19;100131.62;;;5.70;100.00
62248;BME280;48237;50.140;8.486;2023-02-02T08:45:46;100129.90;;;6.01;100.00
62248;BME280;48237;50.140;8.486;2023-02-02T08:48:13;100135.11;;;5.92;100.00
62248;BME280;48237;50.140;8.486;2023-02-02T08:50:40;100132.94;;;6.00;100.00
62248;BME280;48237;50.140;8.486;2023-02-02T08:53:08;100141.52;;;5.91;100.00
62248;BME280;48237;50.140;8.486;2023-02-02T08:55:35;100149.46;;;5.70;100.00
62248;BME280;48237;50.140;8.486;2023-02-02T08:58:02;100153.78;;;6.45;100.00
62248;BME280;48237;50.140;8.486;2023-02-02T09:00:30;100157.07;;;6.34;99.92
62248;BME280;48237;50.140;8.486;2023-02-02T09:02:57;100156.68;;;6.22;99.39
62248;BME280;48237;50.140;8.486;2023-02-02T09:05:24;100148.26;;;6.29;100.00
62248;BME280;48237;50.140;8.486;2023-02-02T09:07:51;100151.91;;;5.79;100.00
62248;BME280;48237;50.140;8.486;2023-02-02T09:10:18;100152.69;;;6.27;99.63
62248;BME280;48237;50.140;8.486;2023-02-02T09:12:45;100148.10;;;6.29;98.33
62248;BME280;48237;50.140;8.486;2023-02-02T09:15:13;100144.65;;;6.42;100.00
62248;BME280;48237;50.140;8.486;2023-02-02T09:17:40;100149.59;;;6.33;100.00
62248;BME280;48237;50.140;8.486;2023-02-02T09:20:07;100147.16;;;6.44;98.83
62248;BME280;48237;50.140;8.486;2023-02-02T09:22:35;100142.27;;;6.58;97.64
62248;BME280;48237;50.140;8.486;2023-02-02T09:25:02;100146.60;;;6.67;96.10
62248;BME280;48237;50.140;8.486;2023-02-02T09:27:29;100148.73;;;6.38;96.57
62248;BME280;48237;50.140;8.486;2023-02-02T09:29:56;100153.33;;;6.40;98.61
62248;BME280;48237;50.140;8.486;2023-02-02T09:32:23;100138.01;;;6.79;92.40
62248;BME280;48237;50.140;8.486;2023-02-02T09:34:50;100155.18;;;6.94;95.40
62248;BME280;48237;50.140;8.486;2023-02-02T09:37:17;100164.63;;;6.89;93.22
62248;BME280;48237;50.140;8.486;2023-02-02T09:39:45;100160.98;;;7.27;91.48
62248;BME280;48237;50.140;8.486;2023-02-02T09:42:25;100164.46;;;6.97;91.89
62248;BME280;48237;50.140;8.486;2023-02-02T09:44:59;100172.89;;;6.87;92.85
62248;BME280;48237;50.140;8.486;2023-02-02T09:47:38;100180.28;;;6.67;94.82
62248;BME280;48237;50.140;8.486;2023-02-02T09:50:14;100189.36;;;6.67;96.37
62248;BME280;48237;50.140;8.486;2023-02-02T09:52:46;100193.50;;;7.00;92.46
62248;BME280;48237;50.140;8.486;2023-02-02T09:55:30;100197.62;;;6.55;95.46
62248;BME280;48237;50.140;8.486;2023-02-02T09:58:06;100205.32;;;6.25;97.64
62248;BME280;48237;50.140;8.486;2023-02-02T10:00:38;100213.31;;;6.47;98.54
62248;BME280;48237;50.140;8.486;2023-02-02T10:03:15;100212.95;;;6.23;100.00
62248;BME280;48237;50.140;8.486;2023-02-02T10:05:50;100219.65;;;6.13;100.00
62248;BME280;48237;50.140;8.486;2023-02-02T10:08:25;100225.22;;;6.36;98.71
62248;BME280;48237;50.140;8.486;2023-02-02T10:10:59;100229.84;;;6.54;98.13
62248;BME280;48237;50.140;8.486;2023-02-02T10:13:32;100223.51;;;6.25;97.42
62248;BME280;48237;50.140;8.486;2023-02-02T10:16:05;100228.24;;;6.40;100.00
62248;BME280;48237;50.140;8.486;2023-02-02T10:18:39;100239.56;;;6.23;100.00
62248;BME280;48237;50.140;8.486;2023-02-02T10:21:11;100232.58;;;6.13;100.00
62248;BME280;48237;50.140;8.486;2023-02-02T10:23:41;100236.24;;;6.30;100.00
62248;BME280;48237;50.140;8.486;2023-02-02T10:26:15;100224.24;;;6.19;97.65
62248;BME280;48237;50.140;8.486;2023-02-02T10:28:56;100224.43;;;6.30;98.89
62248;BME280;48237;50.140;8.486;2023-02-02T10:31:37;100236.15;;;6.81;95.31
62248;BME280;48237;50.140;8.486;2023-02-02T10:34:13;100233.81;;;6.79;93.62
62248;BME280;48237;50.140;8.486;2023-02-02T10:36:49;100230.30;;;7.02;94.64
62248;BME280;48237;50.140;8.486;2023-02-02T10:39:27;100236.03;;;7.05;93.47
62248;BME280;48237;50.140;8.486;2023-02-02T10:42:10;100233.33;;;6.31;96.26
62248;BME280;48237;50.140;8.486;2023-02-02T10:44:46;100233.54;;;6.28;98.30
62248;BME280;48237;50.140;8.486;2023-02-02T10:47:21;100241.82;;;6.19;99.05
62248;BME280;48237;50.140;8.486;2023-02-02T10:49:57;100242.42;;;6.50;98.61
62248;BME280;48237;50.140;8.486;2023-02-02T10:52:31;100241.29;;;6.84;96.88
62248;BME280;48237;50.140;8.486;2023-02-02T10:55:03;100239.90;;;6.73;96.74
62248;BME280;48237;50.140;8.486;2023-02-02T10:57:44;100240.64;;;6.52;96.04
62248;BME280;48237;50.140;8.486;2023-02-02T11:00:20;100244.62;;;6.61;96.85
62248;BME280;48237;50.140;8.486;2023-02-02T11:02:48;100245.23;;;7.03;96.48
62248;BME280;48237;50.140;8.486;2023-02-02T11:05:20;100245.89;;;7.02;93.93
62248;BME280;48237;50.140;8.486;2023-02-02T11:07:48;100244.71;;;6.87;95.70
62248;BME280;48237;50.140;8.486;2023-02-02T11:10:18;100251.11;;;6.72;95.77
62248;BME280;48237;50.140;8.486;2023-02-02T11:12:47;100250.53;;;6.94;96.41
62248;BME280;48237;50.140;8.486;2023-02-02T11:15:25;100251.04;;;7.27;94.34
62248;BME280;48237;50.140;8.486;2023-02-02T11:17:54;100253.76;;;6.78;96.36
62248;BME280;48237;50.140;8.486;2023-02-02T11:20:26;100246.43;;;6.69;97.46
62248;BME280;48237;50.140;8.486;2023-02-02T11:23:00;100254.33;;;6.78;100.00
62248;BME280;48237;50.140;8.486;2023-02-02T11:25:30;100258.81;;;6.07;100.00
62248;BME280;48237;50.140;8.486;2023-02-02T11:28:00;100259.54;;;6.57;100.00
62248;BME280;48237;50.140;8.486;2023-02-02T11:30:36;100259.96;;;6.32;100.00
62248;BME280;48237;50.140;8.486;2023-02-02T11:33:20;100252.78;;;6.97;100.00
62248;BME280;48237;50.140;8.486;2023-02-02T11:35:54;100264.50;;;6.42;100.00
62248;BME280;48237;50.140;8.486;2023-02-02T11:38:22;100265.75;;;6.45;100.00
62248;BME280;48237;50.140;8.486;2023-02-02T11:40:53;100248.43;;;6.60;100.00
62248;BME280;48237;50.140;8.486;2023-02-02T11:43:27;100264.80;;;6.50;100.00
62248;BME280;48237;50.140;8.486;2023-02-02T11:45:57;100263.99;;;6.80;100.00
62248;BME280;48237;50.140;8.486;2023-02-02T11:48:29;100263.48;;;6.97;100.00
62248;BME280;48237;50.140;8.486;2023-02-02T11:50:57;100253.44;;;7.18;100.00
62248;BME280;48237;50.140;8.486;2023-02-02T11:53:28;100263.75;;;7.09;100.00
62248;BME280;48237;50.140;8.486;2023-02-02T11:55:59;100255.27;;;6.78;100.00
62248;BME280;48237;50.140;8.486;2023-02-02T11:58:41;100255.70;;;6.55;100.00
62248;BME280;48237;50.140;8.486;2023-02-02T12:01:22;100257.07;;;6.98;100.00
62248;BME280;48237;50.140;8.486;2023-02-02T12:03:50;100258.51;;;6.76;100.00
62248;BME280;48237;50.140;8.486;2023-02-02T12:06:20;100250.94;;;7.64;100.00
62248;BME280;48237;50.140;8.486;2023-02-02T12:08:48;100256.37;;;6.78;100.00
62248;BME280;48237;50.140;8.486;2023-02-02T12:11:28;100258.26;;;7.51;100.00
62248;BME280;48237;50.140;8.486;2023-02-02T12:14:05;100255.48;;;7.39;98.64
62248;BME280;48237;50.140;8.486;2023-02-02T12:16:46;100259.02;;;7.68;97.91
62248;BME280;48237;50.140;8.486;2023-02-02T12:19:28;100259.04;;;7.37;99.16
62248;BME280;48237;50.140;8.486;2023-02-02T12:22:05;100259.81;;;7.90;96.76
62248;BME280;48237;50.140;8.486;2023-02-02T12:24:47;100248.02;;;8.09;94.04
62248;BME280;48237;50.140;8.486;2023-02-02T12:27:21;100250.11;;;7.73;94.22
62248;BME280;48237;50.140;8.486;2023-02-02T12:30:03;100255.82;;;7.93;94.71
62248;BME280;48237;50.140;8.486;2023-02-02T12:32:47;100257.39;;;7.82;94.85
62248;BME280;48237;50.140;8.486;2023-02-02T12:35:31;100256.99;;;7.56;93.53
62248;BME280;48237;50.140;8.486;2023-02-02T12:38:11;100255.80;;;7.72;95.50
62248;BME280;48237;50.140;8.486;2023-02-02T12:40:55;100260.82;;;7.67;92.87
62248;BME280;48237;50.140;8.486;2023-02-02T12:43:35;100262.49;;;8.08;93.44
62248;BME280;48237;50.140;8.486;2023-02-02T12:46:16;100265.96;;;8.04;91.65
62248;BME280;48237;50.140;8.486;2023-02-02T12:49:00;100265.56;;;7.64;93.37
62248;BME280;48237;50.140;8.486;2023-02-02T12:51:41;100265.46;;;7.69;93.76
62248;BME280;48237;50.140;8.486;2023-02-02T12:54:25;100268.07;;;7.27;96.29
62248;BME280;48237;50.140;8.486;2023-02-02T12:57:04;100265.36;;;6.63;100.00
62248;BME280;48237;50.140;8.486;2023-02-02T12:59:56;100269.37;;;7.48;100.00
62248;BME280;48237;50.140;8.486;2023-02-02T13:02:32;100267.46;;;6.71;100.00
62248;BME280;48237;50.140;8.486;2023-02-02T13:05:12;100269.24;;;6.96;100.00
62248;BME280;48237;50.140;8.486;2023-02-02T13:07:47;100266.10;;;7.80;99.53
62248;BME280;48237;50.140;8.486;2023-02-02T13:10:20;100265.01;;;7.84;95.82
62248;BME280;48237;50.140;8.486;2023-02-02T13:12:54;100274.15;;;7.75;96.05
62248;BME280;48237;50.140;8.486;2023-02-02T13:15:26;100275.90;;;8.03;100.00